SHT4YL EGLL-EGAC
Flight info
| Callsign | SHT4YL |
|---|---|
| Flight time | 0h 54m |
| Altitude | 38000 |
| Route | N0446F380 ULTIB T420 TNT UL28 RODOL UM65 TENSO L603 BELOX DCT REMSI DCT NINEB M148 MAGEE DCT |
| Aircraft | A319/M-SDE3FGIJ1KRWXY/LB1 |
Departure
| Time | 2026-05-05 19:20 |
|---|---|
| Airport | London Heathrow Airport (EGLL) |
Arrival
| Time | 2026-05-05 20:15 |
|---|---|
| Airport | George Best Belfast City Airport (EGAC) |
| Time | Latitude | Longitude | Altitude | Speed | Heading |
|---|---|---|---|---|---|
| 2026-05-05 18:43 | 51.46821 | -0.48683 | 89 ft | 0 kts | 180° |
| 2026-05-05 19:02 | 51.46822 | -0.48683 | 87 ft | 2 kts | 180° |
| 2026-05-05 19:02 | 51.46845 | -0.48683 | 88 ft | 2 kts | 180° |
| 2026-05-05 19:02 | 51.46867 | -0.48679 | 88 ft | 4 kts | 220° |
| 2026-05-05 19:02 | 51.46876 | -0.48647 | 87 ft | 3 kts | 270° |
| 2026-05-05 19:03 | 51.46876 | -0.48641 | 87 ft | 1 kts | 270° |
| 2026-05-05 19:06 | 51.46876 | -0.48644 | 87 ft | 1 kts | 270° |
| 2026-05-05 19:06 | 51.46876 | -0.48663 | 89 ft | 2 kts | 269° |
| 2026-05-05 19:06 | 51.46876 | -0.48699 | 90 ft | 4 kts | 269° |
| 2026-05-05 19:06 | 51.46862 | -0.48745 | 87 ft | 5 kts | 219° |
| 2026-05-05 19:07 | 51.46823 | -0.48752 | 87 ft | 3 kts | 179° |
| 2026-05-05 19:07 | 51.46811 | -0.48752 | 87 ft | 2 kts | 179° |
| 2026-05-05 19:07 | 51.46809 | -0.48752 | 87 ft | 0 kts | 179° |
| 2026-05-05 19:11 | 51.46799 | -0.48752 | 91 ft | 3 kts | 179° |
| 2026-05-05 19:12 | 51.46771 | -0.48752 | 88 ft | 5 kts | 180° |
| 2026-05-05 19:12 | 51.46744 | -0.48751 | 87 ft | 1 kts | 179° |
| 2026-05-05 19:13 | 51.46743 | -0.48751 | 87 ft | 1 kts | 179° |
| 2026-05-05 19:13 | 51.46730 | -0.48751 | 87 ft | 3 kts | 179° |
| 2026-05-05 19:13 | 51.46690 | -0.48751 | 89 ft | 8 kts | 179° |
| 2026-05-05 19:14 | 51.46628 | -0.48756 | 88 ft | 8 kts | 192° |
| 2026-05-05 19:14 | 51.46598 | -0.48772 | 90 ft | 0 kts | 199° |
| 2026-05-05 19:16 | 51.46597 | -0.48773 | 90 ft | 1 kts | 199° |
| 2026-05-05 19:16 | 51.46576 | -0.48783 | 87 ft | 6 kts | 196° |
| 2026-05-05 19:17 | 51.46521 | -0.48785 | 87 ft | 10 kts | 162° |
| 2026-05-05 19:17 | 51.46487 | -0.48737 | 88 ft | 10 kts | 122° |
| 2026-05-05 19:17 | 51.46477 | -0.48654 | 88 ft | 0 kts | 90° |
| 2026-05-05 19:19 | 51.46477 | -0.48644 | 88 ft | 6 kts | 90° |
| 2026-05-05 19:20 | 51.46480 | -0.48260 | 89 ft | 65 kts | 90° |
| 2026-05-05 19:20 | 51.46482 | -0.47218 | 87 ft | 121 kts | 90° |
| 2026-05-05 19:20 | 51.46488 | -0.45597 | 176 ft | 160 kts | 87° |
| 2026-05-05 19:20 | 51.46506 | -0.43836 | 858 ft | 158 kts | 86° |
| 2026-05-05 19:21 | 51.46523 | -0.42670 | 1336 ft | 159 kts | 86° |
| 2026-05-05 19:21 | 51.46802 | -0.40882 | 1741 ft | 177 kts | 60° |
| 2026-05-05 19:21 | 51.47616 | -0.39233 | 2086 ft | 200 kts | 49° |
| 2026-05-05 19:21 | 51.48547 | -0.37467 | 2761 ft | 210 kts | 49° |
| 2026-05-05 19:22 | 51.49484 | -0.35675 | 3741 ft | 209 kts | 49° |
| 2026-05-05 19:22 | 51.50425 | -0.33869 | 4663 ft | 213 kts | 49° |
| 2026-05-05 19:22 | 51.51378 | -0.32037 | 5546 ft | 216 kts | 48° |
| 2026-05-05 19:22 | 51.52267 | -0.30042 | 6405 ft | 223 kts | 62° |
| 2026-05-05 19:23 | 51.52807 | -0.27668 | 7212 ft | 229 kts | 69° |
| 2026-05-05 19:23 | 51.53314 | -0.25260 | 8035 ft | 233 kts | 69° |
| 2026-05-05 19:23 | 51.53835 | -0.22779 | 8883 ft | 237 kts | 69° |
| 2026-05-05 19:23 | 51.54469 | -0.20320 | 9712 ft | 240 kts | 52° |
| 2026-05-05 19:24 | 51.55758 | -0.18673 | 10435 ft | 240 kts | 18° |
| 2026-05-05 19:24 | 51.57444 | -0.18474 | 10958 ft | 257 kts | 344° |
| 2026-05-05 19:24 | 51.59057 | -0.19927 | 11309 ft | 280 kts | 319° |
| 2026-05-05 19:24 | 51.60474 | -0.22252 | 11621 ft | 303 kts | 313° |
| 2026-05-05 19:25 | 51.62090 | -0.24627 | 11880 ft | 326 kts | 322° |
| 2026-05-05 19:25 | 51.64003 | -0.26701 | 12455 ft | 336 kts | 328° |
| 2026-05-05 19:25 | 51.66027 | -0.28543 | 13177 ft | 341 kts | 331° |
| 2026-05-05 19:25 | 51.68136 | -0.30338 | 13886 ft | 346 kts | 332° |
| 2026-05-05 19:26 | 51.70281 | -0.32179 | 14532 ft | 350 kts | 331° |
| 2026-05-05 19:26 | 51.72426 | -0.34092 | 15186 ft | 354 kts | 330° |
| 2026-05-05 19:26 | 51.74572 | -0.36088 | 15850 ft | 358 kts | 329° |
| 2026-05-05 19:26 | 51.76725 | -0.38155 | 16499 ft | 362 kts | 328° |
| 2026-05-05 19:27 | 51.78895 | -0.40269 | 17087 ft | 366 kts | 328° |
| 2026-05-05 19:27 | 51.81088 | -0.42421 | 17724 ft | 371 kts | 328° |
| 2026-05-05 19:27 | 51.83309 | -0.44596 | 18350 ft | 375 kts | 328° |
| 2026-05-05 19:27 | 51.85557 | -0.46790 | 18917 ft | 379 kts | 328° |
| 2026-05-05 19:28 | 51.87795 | -0.48965 | 19523 ft | 382 kts | 328° |
| 2026-05-05 19:28 | 51.90075 | -0.51180 | 20156 ft | 384 kts | 327° |
| 2026-05-05 19:28 | 51.92370 | -0.53413 | 20785 ft | 386 kts | 327° |
| 2026-05-05 19:28 | 51.94679 | -0.55662 | 21402 ft | 388 kts | 327° |
| 2026-05-05 19:29 | 51.96999 | -0.57927 | 22000 ft | 391 kts | 327° |
| 2026-05-05 19:29 | 51.99332 | -0.60207 | 22572 ft | 393 kts | 327° |
| 2026-05-05 19:29 | 52.01689 | -0.62511 | 23134 ft | 396 kts | 327° |
| 2026-05-05 19:29 | 52.04057 | -0.64828 | 23653 ft | 399 kts | 327° |
| 2026-05-05 19:30 | 52.06413 | -0.67136 | 24090 ft | 402 kts | 327° |
| 2026-05-05 19:30 | 52.08815 | -0.69499 | 24515 ft | 406 kts | 327° |
| 2026-05-05 19:30 | 52.11236 | -0.71887 | 24928 ft | 409 kts | 326° |
| 2026-05-05 19:30 | 52.13682 | -0.74304 | 25343 ft | 413 kts | 326° |
| 2026-05-05 19:31 | 52.16147 | -0.76737 | 25756 ft | 416 kts | 326° |
| 2026-05-05 19:31 | 52.18631 | -0.79191 | 26160 ft | 420 kts | 326° |
| 2026-05-05 19:31 | 52.21135 | -0.81669 | 26573 ft | 423 kts | 326° |
| 2026-05-05 19:31 | 52.23665 | -0.84175 | 26983 ft | 426 kts | 326° |
| 2026-05-05 19:32 | 52.26207 | -0.86697 | 27409 ft | 430 kts | 326° |
| 2026-05-05 19:32 | 52.28736 | -0.89208 | 27800 ft | 433 kts | 326° |
| 2026-05-05 19:32 | 52.31319 | -0.91775 | 28205 ft | 436 kts | 326° |
| 2026-05-05 19:32 | 52.33918 | -0.94366 | 28602 ft | 439 kts | 325° |
| 2026-05-05 19:33 | 52.36536 | -0.96979 | 28999 ft | 442 kts | 325° |
| 2026-05-05 19:33 | 52.39171 | -0.99609 | 29385 ft | 445 kts | 325° |
| 2026-05-05 19:33 | 52.41826 | -1.02263 | 29768 ft | 448 kts | 325° |
| 2026-05-05 19:33 | 52.44492 | -1.04933 | 30119 ft | 451 kts | 325° |
| 2026-05-05 19:34 | 52.47181 | -1.07631 | 30443 ft | 454 kts | 325° |
| 2026-05-05 19:34 | 52.49877 | -1.10337 | 30771 ft | 455 kts | 326° |
| 2026-05-05 19:34 | 52.52546 | -1.13018 | 31088 ft | 457 kts | 326° |
| 2026-05-05 19:35 | 52.57970 | -1.18493 | 31879 ft | 456 kts | 326° |
| 2026-05-05 19:35 | 52.60668 | -1.21221 | 32345 ft | 455 kts | 326° |
| 2026-05-05 19:35 | 52.63360 | -1.23944 | 32809 ft | 453 kts | 326° |
| 2026-05-05 19:35 | 52.66040 | -1.26658 | 33270 ft | 452 kts | 326° |
| 2026-05-05 19:36 | 52.68715 | -1.29366 | 33738 ft | 450 kts | 327° |
| 2026-05-05 19:36 | 52.71374 | -1.32063 | 34171 ft | 449 kts | 327° |
| 2026-05-05 19:36 | 52.73994 | -1.34727 | 34574 ft | 448 kts | 327° |
| 2026-05-05 19:36 | 52.76640 | -1.37424 | 34944 ft | 447 kts | 326° |
| 2026-05-05 19:37 | 52.79287 | -1.40124 | 35292 ft | 447 kts | 327° |
| 2026-05-05 19:37 | 52.81932 | -1.42826 | 35630 ft | 447 kts | 326° |
| 2026-05-05 19:37 | 52.84572 | -1.45530 | 35960 ft | 446 kts | 326° |
| 2026-05-05 19:37 | 52.87211 | -1.48238 | 36286 ft | 446 kts | 326° |
| 2026-05-05 19:38 | 52.89845 | -1.50942 | 36590 ft | 446 kts | 326° |
| 2026-05-05 19:38 | 52.92476 | -1.53648 | 36889 ft | 445 kts | 326° |
| 2026-05-05 19:38 | 52.95077 | -1.56323 | 37178 ft | 445 kts | 326° |
| 2026-05-05 19:38 | 52.97709 | -1.59036 | 37482 ft | 445 kts | 326° |
| 2026-05-05 19:39 | 53.00334 | -1.61747 | 37768 ft | 445 kts | 326° |
| 2026-05-05 19:39 | 53.02964 | -1.64468 | 37980 ft | 446 kts | 326° |
| 2026-05-05 19:39 | 53.05594 | -1.67192 | 38026 ft | 445 kts | 326° |
| 2026-05-05 19:40 | 53.10841 | -1.72639 | 38017 ft | 444 kts | 326° |
| 2026-05-05 19:40 | 53.16075 | -1.78096 | 38023 ft | 444 kts | 326° |
| 2026-05-05 19:41 | 53.21263 | -1.83528 | 38040 ft | 443 kts | 326° |
| 2026-05-05 19:41 | 53.26512 | -1.88923 | 38038 ft | 443 kts | 328° |
| 2026-05-05 19:42 | 53.31886 | -1.93985 | 38053 ft | 444 kts | 329° |
| 2026-05-05 19:42 | 53.37295 | -1.98970 | 38064 ft | 444 kts | 329° |
| 2026-05-05 19:43 | 53.42641 | -2.04008 | 38072 ft | 443 kts | 328° |
| 2026-05-05 19:43 | 53.47995 | -2.09131 | 38060 ft | 443 kts | 328° |
| 2026-05-05 19:44 | 53.53346 | -2.14280 | 38066 ft | 443 kts | 328° |
| 2026-05-05 19:44 | 53.58311 | -2.20273 | 38073 ft | 438 kts | 312° |
| 2026-05-05 19:45 | 53.61798 | -2.28564 | 38062 ft | 433 kts | 293° |
| 2026-05-05 19:45 | 53.64008 | -2.37895 | 38055 ft | 432 kts | 290° |
| 2026-05-05 19:46 | 53.66171 | -2.47358 | 38052 ft | 432 kts | 290° |
| 2026-05-05 19:46 | 53.68328 | -2.56831 | 38055 ft | 433 kts | 290° |
| 2026-05-05 19:47 | 53.70476 | -2.66309 | 38054 ft | 433 kts | 289° |
| 2026-05-05 19:47 | 53.72620 | -2.75815 | 38061 ft | 433 kts | 289° |
| 2026-05-05 19:48 | 53.74740 | -2.85266 | 38064 ft | 433 kts | 289° |
| 2026-05-05 19:48 | 53.76867 | -2.94798 | 38063 ft | 433 kts | 289° |
| 2026-05-05 19:49 | 53.78989 | -3.04329 | 38068 ft | 433 kts | 289° |
| 2026-05-05 19:49 | 53.81108 | -3.13862 | 38068 ft | 433 kts | 289° |
| 2026-05-05 19:50 | 53.83195 | -3.23337 | 38069 ft | 433 kts | 289° |
| 2026-05-05 19:50 | 53.85283 | -3.32888 | 38068 ft | 432 kts | 289° |
| 2026-05-05 19:51 | 53.87370 | -3.42432 | 38062 ft | 432 kts | 289° |
| 2026-05-05 19:51 | 53.88412 | -3.47205 | 37946 ft | 432 kts | 289° |
| 2026-05-05 19:51 | 53.89459 | -3.52020 | 37032 ft | 440 kts | 289° |
| 2026-05-05 19:51 | 53.90506 | -3.56850 | 36216 ft | 444 kts | 289° |
| 2026-05-05 19:52 | 53.91568 | -3.61762 | 35488 ft | 446 kts | 289° |
| 2026-05-05 19:52 | 53.92635 | -3.66722 | 34785 ft | 446 kts | 289° |
| 2026-05-05 19:52 | 53.93698 | -3.71673 | 34085 ft | 446 kts | 289° |
| 2026-05-05 19:52 | 53.94759 | -3.76622 | 33267 ft | 447 kts | 289° |
| 2026-05-05 19:53 | 53.95849 | -3.81560 | 32394 ft | 448 kts | 292° |
| 2026-05-05 19:53 | 53.97285 | -3.86249 | 31700 ft | 446 kts | 298° |
| 2026-05-05 19:53 | 53.98829 | -3.90807 | 30928 ft | 445 kts | 298° |
| 2026-05-05 19:53 | 54.00344 | -3.95293 | 30225 ft | 442 kts | 298° |
| 2026-05-05 19:54 | 54.01868 | -3.99816 | 29566 ft | 437 kts | 298° |
| 2026-05-05 19:54 | 54.03369 | -4.04278 | 28893 ft | 432 kts | 298° |
| 2026-05-05 19:54 | 54.04848 | -4.08683 | 28330 ft | 425 kts | 298° |
| 2026-05-05 19:54 | 54.06323 | -4.12995 | 27763 ft | 419 kts | 301° |
| 2026-05-05 19:55 | 54.07980 | -4.17031 | 27210 ft | 414 kts | 304° |
| 2026-05-05 19:55 | 54.09634 | -4.21005 | 26659 ft | 408 kts | 304° |
| 2026-05-05 19:55 | 54.11262 | -4.24925 | 26125 ft | 403 kts | 303° |
| 2026-05-05 19:55 | 54.12845 | -4.28748 | 25611 ft | 397 kts | 303° |
| 2026-05-05 19:56 | 54.14424 | -4.32577 | 25111 ft | 392 kts | 303° |
| 2026-05-05 19:56 | 54.15983 | -4.36363 | 24613 ft | 388 kts | 303° |
| 2026-05-05 19:56 | 54.17524 | -4.40104 | 24151 ft | 383 kts | 303° |
| 2026-05-05 19:56 | 54.19052 | -4.43808 | 23691 ft | 379 kts | 303° |
| 2026-05-05 19:57 | 54.20562 | -4.47480 | 23175 ft | 376 kts | 303° |
| 2026-05-05 19:57 | 54.22050 | -4.51114 | 22742 ft | 371 kts | 303° |
| 2026-05-05 19:57 | 54.23516 | -4.54703 | 22297 ft | 366 kts | 303° |
| 2026-05-05 19:57 | 54.24964 | -4.58243 | 21842 ft | 361 kts | 303° |
| 2026-05-05 19:58 | 54.26376 | -4.61697 | 21404 ft | 357 kts | 303° |
| 2026-05-05 19:58 | 54.27788 | -4.65166 | 20934 ft | 353 kts | 303° |
| 2026-05-05 19:58 | 54.29183 | -4.68601 | 20481 ft | 349 kts | 303° |
| 2026-05-05 19:58 | 54.30564 | -4.71997 | 20004 ft | 346 kts | 303° |
| 2026-05-05 19:59 | 54.31930 | -4.75359 | 19542 ft | 343 kts | 303° |
| 2026-05-05 19:59 | 54.33284 | -4.78695 | 19062 ft | 340 kts | 303° |
| 2026-05-05 19:59 | 54.34629 | -4.82022 | 18576 ft | 338 kts | 303° |
| 2026-05-05 19:59 | 54.35945 | -4.85282 | 18063 ft | 336 kts | 303° |
| 2026-05-05 20:00 | 54.37267 | -4.88560 | 17573 ft | 333 kts | 303° |
| 2026-05-05 20:00 | 54.38574 | -4.91804 | 17101 ft | 329 kts | 303° |
| 2026-05-05 20:00 | 54.39868 | -4.95016 | 16630 ft | 325 kts | 303° |
| 2026-05-05 20:00 | 54.41145 | -4.98200 | 16161 ft | 322 kts | 303° |
| 2026-05-05 20:01 | 54.42407 | -5.01350 | 15695 ft | 319 kts | 303° |
| 2026-05-05 20:01 | 54.43666 | -5.04480 | 15229 ft | 317 kts | 304° |
| 2026-05-05 20:01 | 54.44931 | -5.07610 | 14778 ft | 322 kts | 304° |
| 2026-05-05 20:01 | 54.46210 | -5.10771 | 14346 ft | 322 kts | 304° |
| 2026-05-05 20:02 | 54.47483 | -5.13920 | 13907 ft | 320 kts | 304° |
| 2026-05-05 20:02 | 54.48750 | -5.17047 | 13429 ft | 318 kts | 304° |
| 2026-05-05 20:02 | 54.50016 | -5.20144 | 12947 ft | 316 kts | 306° |
| 2026-05-05 20:02 | 54.51346 | -5.22935 | 12495 ft | 314 kts | 305° |
| 2026-05-05 20:03 | 54.52224 | -5.26268 | 12029 ft | 311 kts | 282° |
| 2026-05-05 20:03 | 54.52219 | -5.29968 | 11566 ft | 312 kts | 258° |
| 2026-05-05 20:03 | 54.51491 | -5.33495 | 11109 ft | 313 kts | 249° |
| 2026-05-05 20:03 | 54.50650 | -5.36946 | 10660 ft | 312 kts | 249° |
| 2026-05-05 20:04 | 54.49812 | -5.40342 | 10459 ft | 303 kts | 249° |
| 2026-05-05 20:04 | 54.48999 | -5.43609 | 10307 ft | 292 kts | 249° |
| 2026-05-05 20:04 | 54.48210 | -5.46762 | 10165 ft | 282 kts | 249° |
| 2026-05-05 20:04 | 54.47434 | -5.49849 | 9859 ft | 281 kts | 249° |
| 2026-05-05 20:05 | 54.46660 | -5.52934 | 9442 ft | 280 kts | 249° |
| 2026-05-05 20:05 | 54.45903 | -5.55963 | 9053 ft | 279 kts | 249° |
| 2026-05-05 20:05 | 54.45140 | -5.59032 | 8657 ft | 279 kts | 249° |
| 2026-05-05 20:05 | 54.44386 | -5.62092 | 8267 ft | 278 kts | 249° |
| 2026-05-05 20:06 | 54.43638 | -5.65149 | 7879 ft | 277 kts | 249° |
| 2026-05-05 20:06 | 54.42898 | -5.68207 | 7498 ft | 277 kts | 249° |
| 2026-05-05 20:06 | 54.42167 | -5.71261 | 7145 ft | 276 kts | 249° |
| 2026-05-05 20:06 | 54.41458 | -5.74253 | 7061 ft | 264 kts | 249° |
| 2026-05-05 20:07 | 54.40783 | -5.77090 | 7076 ft | 250 kts | 249° |
| 2026-05-05 20:07 | 54.40129 | -5.79813 | 7078 ft | 242 kts | 249° |
| 2026-05-05 20:07 | 54.39726 | -5.82485 | 7073 ft | 223 kts | 273° |
| 2026-05-05 20:07 | 54.40139 | -5.84840 | 7078 ft | 201 kts | 302° |
| 2026-05-05 20:08 | 54.40915 | -5.86770 | 7071 ft | 193 kts | 308° |
| 2026-05-05 20:08 | 54.41713 | -5.88597 | 6764 ft | 191 kts | 309° |
| 2026-05-05 20:08 | 54.42516 | -5.90422 | 6330 ft | 192 kts | 309° |
| 2026-05-05 20:08 | 54.43316 | -5.92252 | 5916 ft | 191 kts | 309° |
| 2026-05-05 20:09 | 54.44099 | -5.94047 | 5537 ft | 187 kts | 309° |
| 2026-05-05 20:09 | 54.44880 | -5.95831 | 5101 ft | 186 kts | 309° |
| 2026-05-05 20:09 | 54.45660 | -5.97603 | 4722 ft | 185 kts | 309° |
| 2026-05-05 20:09 | 54.46424 | -5.99336 | 4397 ft | 183 kts | 309° |
| 2026-05-05 20:10 | 54.47186 | -6.01081 | 4070 ft | 182 kts | 309° |
| 2026-05-05 20:10 | 54.47939 | -6.02828 | 3733 ft | 181 kts | 309° |
| 2026-05-05 20:10 | 54.48681 | -6.04567 | 3473 ft | 180 kts | 309° |
| 2026-05-05 20:10 | 54.49467 | -6.06241 | 3272 ft | 179 kts | 321° |
| 2026-05-05 20:11 | 54.50605 | -6.06888 | 3111 ft | 175 kts | 4° |
| 2026-05-05 20:11 | 54.51689 | -6.05985 | 3026 ft | 179 kts | 45° |
| 2026-05-05 20:11 | 54.52190 | -6.04023 | 3020 ft | 184 kts | 75° |
| 2026-05-05 20:11 | 54.52405 | -6.01835 | 2799 ft | 186 kts | 78° |
| 2026-05-05 20:12 | 54.52628 | -5.99649 | 2356 ft | 182 kts | 70° |
| 2026-05-05 20:12 | 54.53208 | -5.97783 | 2049 ft | 175 kts | 48° |
| 2026-05-05 20:12 | 54.54098 | -5.96450 | 1811 ft | 171 kts | 31° |
| 2026-05-05 20:12 | 54.55077 | -5.95287 | 1573 ft | 171 kts | 32° |
| 2026-05-05 20:13 | 54.56012 | -5.94171 | 1331 ft | 156 kts | 32° |
| 2026-05-05 20:13 | 54.56864 | -5.93154 | 1115 ft | 143 kts | 31° |
| 2026-05-05 20:13 | 54.57655 | -5.92212 | 914 ft | 134 kts | 32° |
| 2026-05-05 20:13 | 54.58416 | -5.91305 | 727 ft | 133 kts | 32° |
| 2026-05-05 20:14 | 54.59171 | -5.90405 | 550 ft | 132 kts | 32° |
| 2026-05-05 20:14 | 54.59928 | -5.89502 | 372 ft | 132 kts | 32° |
| 2026-05-05 20:14 | 54.60674 | -5.88602 | 194 ft | 130 kts | 32° |
| 2026-05-05 20:14 | 54.61416 | -5.87717 | 22 ft | 129 kts | 32° |
| 2026-05-05 20:15 | 54.61982 | -5.87044 | 20 ft | 58 kts | 34° |
| 2026-05-05 20:15 | 54.62106 | -5.86890 | 20 ft | 8 kts | 55° |
| 2026-05-05 20:15 | 54.62119 | -5.86879 | 20 ft | 2 kts | 268° |
| 2026-05-05 20:15 | 54.62096 | -5.86915 | 21 ft | 7 kts | 211° |
| 2026-05-05 20:16 | 54.62040 | -5.86976 | 21 ft | 11 kts | 213° |
| 2026-05-05 20:16 | 54.61963 | -5.87070 | 20 ft | 15 kts | 214° |
| 2026-05-05 20:16 | 54.61878 | -5.87170 | 23 ft | 10 kts | 213° |
| 2026-05-05 20:16 | 54.61815 | -5.87130 | 21 ft | 13 kts | 128° |
| 2026-05-05 20:17 | 54.61757 | -5.87004 | 21 ft | 14 kts | 144° |
| 2026-05-05 20:17 | 54.61658 | -5.87073 | 17 ft | 18 kts | 214° |
| 2026-05-05 20:17 | 54.61555 | -5.87195 | 17 ft | 14 kts | 215° |
| 2026-05-05 20:17 | 54.61494 | -5.87212 | 17 ft | 7 kts | 160° |
| 2026-05-05 20:18 | 54.61469 | -5.87194 | 19 ft | 2 kts | 156° |
| 2026-05-05 20:18 | 54.61461 | -5.87187 | 17 ft | 0 kts | 156° |